Time;durP1;ratioP1;P1;durP2;ratioP2;P2;SDS_P1;SDS_P2;PMS_P1;PMS_P2;Temp;Humidity;BMP_temperature;BMP_pressure;BME280_temperature;BME280_humidity;BME280_pressure;Samples;Min_cycle;Max_cycle;Signal;HPM_P1;HPM_P2
2021/05/07 00:00:51;;;;;;;3.67;2.63;;;;;;;;;;1472234;40;20882;-82
2021/05/07 00:01:52;;;;;;;4.50;2.97;;;;;;;;;;1474847;40;20404;-82
2021/05/07 00:02:53;;;;;;;5.38;2.97;;;;;;;;;;1474278;40;20415;-82
2021/05/07 00:03:54;;;;;;;4.38;3.00;;;;;;;;;;1477391;40;20395;-82
2021/05/07 00:04:55;;;;;;;4.13;2.55;;;;;;;;;;1474939;40;20415;-81
2021/05/07 00:05:57;;;;;;;4.13;2.78;;;;;;;;;;1474460;40;20400;-81
2021/05/07 00:06:58;;;;;;;3.67;3.35;;;;;;;;;;1474861;40;20792;-81
2021/05/07 00:07:59;;;;;;;5.03;3.00;;;;;;;;;;1479006;40;20402;-81
2021/05/07 00:09:03;;;;;;;4.22;2.70;;;;;;;;;;1478434;40;20398;-82
2021/05/07 00:10:05;;;;;;;5.28;3.05;;;;;;;;;;1473526;40;20404;-82
2021/05/07 00:11:18;;;;;;;4.50;3.30;;;;;;;;;;1478558;40;20536;-81
2021/05/07 00:12:19;;;;;;;3.92;2.55;;;;;;;;;;1478495;40;20437;-81
2021/05/07 00:13:21;;;;;;;3.63;2.60;;;;;;;;;;1474766;40;20403;-81
2021/05/07 00:14:22;;;;;;;2.88;2.50;;;;;;;;;;1479350;40;20407;-82
2021/05/07 00:15:23;;;;;;;4.85;2.80;;;;;;;;;;1482542;40;20400;-82
2021/05/07 00:16:25;;;;;;;4.63;2.85;;;;;;;;;;1475141;40;20408;-81
2021/05/07 00:17:25;;;;;;;3.92;2.25;;;;;;;;;;1470223;40;20441;-81
2021/05/07 00:18:27;;;;;;;5.97;2.80;;;;;;;;;;1474354;40;20478;-81
2021/05/07 00:19:29;;;;;;;3.38;2.45;;;;;;;;;;1479024;40;20899;-81
2021/05/07 00:20:30;;;;;;;3.03;2.42;;;;;;;;;;1482178;40;20411;-81
2021/05/07 00:21:32;;;;;;;5.63;2.88;;;;;;;;;;1482381;40;20429;-81
2021/05/07 00:22:34;;;;;;;3.03;2.72;;;;;;;;;;1479031;40;20481;-82
2021/05/07 00:23:56;;;;;;;3.47;2.30;;;;;;;;;;1479688;40;20493;-83
2021/05/07 00:24:57;;;;;;;3.28;2.47;;;;;;;;;;1478339;40;20688;-82
2021/05/07 00:26:00;;;;;;;4.90;2.58;;;;;;;;;;1474333;40;20464;-81
2021/05/07 00:27:01;;;;;;;3.72;2.70;;;;;;;;;;1474991;40;20436;-82
2021/05/07 00:28:03;;;;;;;3.90;2.45;;;;;;;;;;1478911;40;20482;-82
2021/05/07 00:29:04;;;;;;;3.47;2.42;;;;;;;;;;1479472;40;20438;-81
2021/05/07 00:30:06;;;;;;;4.68;2.65;;;;;;;;;;1475189;40;20434;-82
2021/05/07 00:31:07;;;;;;;5.10;2.90;;;;;;;;;;1473103;40;20412;-82
2021/05/07 00:32:08;;;;;;;3.97;2.83;;;;;;;;;;1478216;40;20415;-82
2021/05/07 00:33:10;;;;;;;5.60;2.75;;;;;;;;;;1478823;40;20390;-82
2021/05/07 00:34:11;;;;;;;4.95;3.17;;;;;;;;;;1478765;40;20426;-82
2021/05/07 00:35:12;;;;;;;3.47;3.20;;;;;;;;;;1483149;40;20393;-84
2021/05/07 00:36:13;;;;;;;5.25;2.75;;;;;;;;;;1480863;40;20393;-84
2021/05/07 00:37:14;;;;;;;4.15;3.03;;;;;;;;;;1482737;40;20408;-84
2021/05/07 00:38:15;;;;;;;4.85;3.45;;;;;;;;;;1474619;40;20483;-84
2021/05/07 00:39:16;;;;;;;4.10;3.40;;;;;;;;;;1474486;40;20662;-84
2021/05/07 00:40:19;;;;;;;5.65;4.15;;;;;;;;;;1473891;40;20424;-83
2021/05/07 00:41:20;;;;;;;5.20;3.30;;;;;;;;;;1475112;40;20423;-82
2021/05/07 00:42:22;;;;;;;3.78;3.45;;;;;;;;;;1481839;40;20420;-82
2021/05/07 00:43:25;;;;;;;4.07;3.65;;;;;;;;;;1483025;40;20393;-82
2021/05/07 00:44:26;;;;;;;5.13;3.03;;;;;;;;;;1482691;40;20505;-82
2021/05/07 00:45:27;;;;;;;5.88;3.53;;;;;;;;;;1474570;40;20412;-82
2021/05/07 00:46:28;;;;;;;6.20;3.30;;;;;;;;;;1473718;40;20420;-82
2021/05/07 00:47:29;;;;;;;3.42;3.10;;;;;;;;;;1474861;40;20424;-83
2021/05/07 00:48:31;;;;;;;5.32;3.28;;;;;;;;;;1474070;40;20430;-82
2021/05/07 00:49:33;;;;;;;5.20;3.25;;;;;;;;;;1474848;40;20403;-82
2021/05/07 00:50:35;;;;;;;5.32;3.15;;;;;;;;;;1478829;40;20546;-82
2021/05/07 00:51:36;;;;;;;4.05;3.33;;;;;;;;;;1478786;40;20579;-82
2021/05/07 00:52:37;;;;;;;3.30;2.72;;;;;;;;;;1475363;40;20899;-82
2021/05/07 00:53:39;;;;;;;5.22;3.20;;;;;;;;;;1479486;40;20406;-81
2021/05/07 00:54:40;;;;;;;3.63;2.83;;;;;;;;;;1478370;40;20404;-84
2021/05/07 00:55:41;;;;;;;5.38;3.35;;;;;;;;;;1477585;40;20414;-83
2021/05/07 00:56:42;;;;;;;3.50;2.85;;;;;;;;;;1485422;40;20395;-84
2021/05/07 00:57:43;;;;;;;3.90;3.13;;;;;;;;;;1488242;40;20408;-82
2021/05/07 00:58:45;;;;;;;4.18;3.30;;;;;;;;;;1480666;40;20388;-83
2021/05/07 00:59:46;;;;;;;4.20;3.42;;;;;;;;;;1484270;40;20410;-82
2021/05/07 01:00:51;;;;;;;3.97;3.67;;;;;;;;;;1482044;40;20410;-81
2021/05/07 01:01:52;;;;;;;4.18;3.78;;;;;;;;;;1473770;40;20422;-81
2021/05/07 01:02:53;;;;;;;5.82;3.38;;;;;;;;;;1476894;40;20693;-82
2021/05/07 01:03:54;;;;;;;4.43;3.20;;;;;;;;;;1484015;40;20413;-81
2021/05/07 01:04:55;;;;;;;4.93;3.90;;;;;;;;;;1483885;40;20413;-82
2021/05/07 01:05:56;;;;;;;7.60;4.13;;;;;;;;;;1482599;40;20409;-82
2021/05/07 01:06:57;;;;;;;5.60;3.25;;;;;;;;;;1474963;40;20718;-81
2021/05/07 01:07:58;;;;;;;4.00;3.60;;;;;;;;;;1470484;40;20417;-82
2021/05/07 01:08:59;;;;;;;5.32;3.30;;;;;;;;;;1470437;40;20691;-81
2021/05/07 01:10:00;;;;;;;4.93;3.63;;;;;;;;;;1476137;40;20387;-82
2021/05/07 01:11:01;;;;;;;5.32;3.60;;;;;;;;;;1474429;40;20436;-82
2021/05/07 01:12:03;;;;;;;3.08;2.85;;;;;;;;;;1475489;40;20966;-82
2021/05/07 01:13:04;;;;;;;3.67;3.28;;;;;;;;;;1478538;40;20405;-83
2021/05/07 01:14:14;;;;;;;3.83;3.42;;;;;;;;;;1479388;40;20395;-83
2021/05/07 01:15:17;;;;;;;3.87;3.20;;;;;;;;;;1478378;40;20405;-83
2021/05/07 01:16:18;;;;;;;3.08;2.88;;;;;;;;;;1482338;40;20400;-82
2021/05/07 01:17:19;;;;;;;3.92;3.20;;;;;;;;;;1477460;40;20410;-84
2021/05/07 01:18:21;;;;;;;4.40;3.30;;;;;;;;;;1474238;40;20420;-82
2021/05/07 01:19:22;;;;;;;5.45;3.20;;;;;;;;;;1478431;40;20788;-82
2021/05/07 01:20:25;;;;;;;3.78;3.25;;;;;;;;;;1469836;40;20422;-82
2021/05/07 01:21:26;;;;;;;5.10;3.65;;;;;;;;;;1470829;40;20409;-82
2021/05/07 01:22:27;;;;;;;5.22;3.88;;;;;;;;;;1470521;40;20465;-82
2021/05/07 01:23:31;;;;;;;6.95;3.88;;;;;;;;;;1475111;40;20411;-82
2021/05/07 01:24:32;;;;;;;6.57;4.10;;;;;;;;;;1482933;40;20392;-82
2021/05/07 01:25:35;;;;;;;5.53;4.13;;;;;;;;;;1484868;40;20413;-84
2021/05/07 01:26:40;;;;;;;4.53;4.13;;;;;;;;;;1486711;40;20381;-82
2021/05/07 01:27:42;;;;;;;8.15;4.40;;;;;;;;;;1483478;40;20812;-83
2021/05/07 01:28:44;;;;;;;5.75;3.83;;;;;;;;;;1479257;40;20416;-85
2021/05/07 01:29:45;;;;;;;6.32;4.72;;;;;;;;;;1477277;40;20396;-84
2021/05/07 01:30:47;;;;;;;5.55;4.75;;;;;;;;;;1482701;40;20428;-81
2021/05/07 01:31:54;;;;;;;5.65;4.20;;;;;;;;;;1484338;40;20393;-82
2021/05/07 01:32:55;;;;;;;6.65;5.25;;;;;;;;;;1483513;40;20419;-81
2021/05/07 01:33:56;;;;;;;5.80;4.88;;;;;;;;;;1483929;40;20489;-81
2021/05/07 01:34:57;;;;;;;6.47;5.15;;;;;;;;;;1484124;40;20401;-81
2021/05/07 01:35:59;;;;;;;5.70;5.20;;;;;;;;;;1483048;40;20424;-82
2021/05/07 01:37:00;;;;;;;5.30;4.50;;;;;;;;;;1482690;40;20401;-82
2021/05/07 01:38:02;;;;;;;6.07;4.90;;;;;;;;;;1483375;40;20419;-82
2021/05/07 01:39:04;;;;;;;6.13;4.55;;;;;;;;;;1482745;40;20404;-82
2021/05/07 01:40:12;;;;;;;5.30;4.37;;;;;;;;;;1475466;40;20428;-81
2021/05/07 01:41:13;;;;;;;5.22;4.47;;;;;;;;;;1479241;40;20426;-82
2021/05/07 01:42:14;;;;;;;5.22;4.55;;;;;;;;;;1474311;40;20404;-85
2021/05/07 01:43:18;;;;;;;6.80;5.00;;;;;;;;;;1474152;40;20434;-83
2021/05/07 01:44:19;;;;;;;4.90;4.47;;;;;;;;;;1478874;40;20991;-84
2021/05/07 01:45:22;;;;;;;7.50;5.28;;;;;;;;;;1482390;40;20416;-82
2021/05/07 01:46:23;;;;;;;7.05;5.63;;;;;;;;;;1478704;40;20399;-81
2021/05/07 01:47:24;;;;;;;6.45;5.13;;;;;;;;;;1474399;40;20400;-82
2021/05/07 01:48:26;;;;;;;8.75;6.00;;;;;;;;;;1470193;40;20430;-83
2021/05/07 01:49:27;;;;;;;6.72;5.63;;;;;;;;;;1478522;40;20775;-83
2021/05/07 01:50:30;;;;;;;6.07;5.25;;;;;;;;;;1482782;40;20407;-82
2021/05/07 01:51:31;;;;;;;5.07;4.28;;;;;;;;;;1487405;40;20450;-82
2021/05/07 01:52:33;;;;;;;7.55;5.00;;;;;;;;;;1482183;40;20411;-82
2021/05/07 01:53:34;;;;;;;5.05;4.60;;;;;;;;;;1478451;40;20779;-82
2021/05/07 01:54:35;;;;;;;5.70;4.57;;;;;;;;;;1477977;40;20436;-82
2021/05/07 01:55:39;;;;;;;4.03;3.70;;;;;;;;;;1478775;40;20430;-82
2021/05/07 01:56:40;;;;;;;4.13;3.03;;;;;;;;;;1483048;40;20412;-83
2021/05/07 01:57:41;;;;;;;2.17;1.83;;;;;;;;;;1482241;40;20405;-82
2021/05/07 01:58:48;;;;;;;3.35;2.30;;;;;;;;;;1482672;40;20419;-82
2021/05/07 01:59:49;;;;;;;3.22;2.50;;;;;;;;;;1481943;40;20777;-82
2021/05/07 02:00:50;;;;;;;6.72;3.50;;;;;;;;;;1478198;40;20406;-83
2021/05/07 02:01:51;;;;;;;4.13;3.45;;;;;;;;;;1474019;40;20412;-82
2021/05/07 02:02:53;;;;;;;10.37;4.27;;;;;;;;;;1470836;40;20489;-82
2021/05/07 02:03:54;;;;;;;4.68;4.20;;;;;;;;;;1476805;40;20400;-81
2021/05/07 02:04:55;;;;;;;5.63;3.55;;;;;;;;;;1474197;40;20399;-82
2021/05/07 02:05:56;;;;;;;4.57;3.53;;;;;;;;;;1474196;40;20400;-81
2021/05/07 02:06:57;;;;;;;4.00;2.30;;;;;;;;;;1476871;40;20777;-82
2021/05/07 02:07:59;;;;;;;3.15;1.90;;;;;;;;;;1473284;40;20411;-82
2021/05/07 02:08:59;;;;;;;4.53;2.30;;;;;;;;;;1477915;40;20418;-82
2021/05/07 02:10:00;;;;;;;3.97;1.60;;;;;;;;;;1479687;40;20411;-81
2021/05/07 02:11:02;;;;;;;4.40;1.60;;;;;;;;;;1478362;40;20414;-82
2021/05/07 02:12:03;;;;;;;3.97;1.23;;;;;;;;;;1476513;40;20407;-81
2021/05/07 02:13:05;;;;;;;2.47;1.30;;;;;;;;;;1473968;40;20408;-82
2021/05/07 02:14:06;;;;;;;5.93;1.65;;;;;;;;;;1474029;40;20411;-81
2021/05/07 02:15:09;;;;;;;3.95;1.30;;;;;;;;;;1482588;40;20411;-82
2021/05/07 02:16:12;;;;;;;3.53;1.30;;;;;;;;;;1479135;40;20407;-81
2021/05/07 02:17:13;;;;;;;3.22;1.33;;;;;;;;;;1477720;40;20502;-81
2021/05/07 02:18:14;;;;;;;3.17;1.88;;;;;;;;;;1472815;40;20816;-81
2021/05/07 02:19:15;;;;;;;4.35;1.60;;;;;;;;;;1470253;40;20485;-82
2021/05/07 02:20:17;;;;;;;3.72;1.42;;;;;;;;;;1473596;40;20674;-82
2021/05/07 02:21:18;;;;;;;3.10;1.52;;;;;;;;;;1474285;40;20408;-83
2021/05/07 02:22:20;;;;;;;6.05;1.27;;;;;;;;;;1469770;40;20420;-81
2021/05/07 02:23:22;;;;;;;3.58;1.80;;;;;;;;;;1474015;40;20804;-80
2021/05/07 02:24:23;;;;;;;3.55;1.90;;;;;;;;;;1473334;40;21021;-82
2021/05/07 02:25:26;;;;;;;2.85;1.88;;;;;;;;;;1476348;40;20852;-81
2021/05/07 02:26:27;;;;;;;4.38;1.40;;;;;;;;;;1482303;40;20427;-81
2021/05/07 02:27:28;;;;;;;5.40;1.65;;;;;;;;;;1482499;40;20908;-80
2021/05/07 02:28:29;;;;;;;4.45;1.33;;;;;;;;;;1482686;40;20407;-83
2021/05/07 02:29:30;;;;;;;3.75;1.40;;;;;;;;;;1482878;40;20762;-81
2021/05/07 02:30:32;;;;;;;3.67;1.40;;;;;;;;;;1482810;40;20405;-80
2021/05/07 02:31:33;;;;;;;2.97;1.27;;;;;;;;;;1482420;40;20778;-80
2021/05/07 02:32:34;;;;;;;3.10;1.60;;;;;;;;;;1472462;40;20391;-80
2021/05/07 02:33:38;;;;;;;3.67;1.50;;;;;;;;;;1478581;40;20730;-81
2021/05/07 02:34:43;;;;;;;3.30;1.40;;;;;;;;;;1487003;40;20435;-80
2021/05/07 02:35:44;;;;;;;1.77;1.27;;;;;;;;;;1487251;40;20763;-81
2021/05/07 02:36:45;;;;;;;2.53;1.58;;;;;;;;;;1482162;40;21077;-80
2021/05/07 02:37:46;;;;;;;3.53;1.80;;;;;;;;;;1479619;40;20398;-81
2021/05/07 02:38:47;;;;;;;5.50;2.05;;;;;;;;;;1478032;40;20402;-80
2021/05/07 02:39:48;;;;;;;4.32;2.05;;;;;;;;;;1478225;40;20398;-79
2021/05/07 02:40:49;;;;;;;4.50;2.15;;;;;;;;;;1477791;40;20405;-80
2021/05/07 02:41:50;;;;;;;4.63;2.38;;;;;;;;;;1469793;40;20923;-79
2021/05/07 02:42:52;;;;;;;3.30;2.03;;;;;;;;;;1469644;40;20428;-80
2021/05/07 02:43:52;;;;;;;4.47;2.03;;;;;;;;;;1473958;40;20784;-80
2021/05/07 02:44:54;;;;;;;3.72;2.20;;;;;;;;;;1474553;40;20404;-80
2021/05/07 02:45:55;;;;;;;3.45;2.70;;;;;;;;;;1476248;40;20431;-81
2021/05/07 02:47:03;;;;;;;4.30;2.30;;;;;;;;;;1473617;40;20449;-80
2021/05/07 02:48:05;;;;;;;6.32;2.53;;;;;;;;;;1474022;40;20471;-80
2021/05/07 02:49:06;;;;;;;2.47;2.28;;;;;;;;;;1478103;40;20458;-80
2021/05/07 02:50:08;;;;;;;7.82;3.08;;;;;;;;;;1477835;40;20819;-80
2021/05/07 02:51:09;;;;;;;4.88;2.50;;;;;;;;;;1469982;40;20413;-80
2021/05/07 02:52:10;;;;;;;4.55;2.13;;;;;;;;;;1473660;40;20708;-80
2021/05/07 02:53:12;;;;;;;2.47;1.77;;;;;;;;;;1482615;40;20396;-81
2021/05/07 02:54:13;;;;;;;3.15;2.00;;;;;;;;;;1477802;40;20930;-81
2021/05/07 02:55:14;;;;;;;2.50;1.80;;;;;;;;;;1476799;40;20405;-81
2021/05/07 02:56:15;;;;;;;2.80;1.65;;;;;;;;;;1473546;40;20892;-83
2021/05/07 02:57:16;;;;;;;4.78;2.33;;;;;;;;;;1473761;40;20396;-82
2021/05/07 02:58:17;;;;;;;2.70;1.80;;;;;;;;;;1478039;40;20418;-83
2021/05/07 02:59:19;;;;;;;2.33;1.98;;;;;;;;;;1478266;40;20394;-82
2021/05/07 03:00:21;;;;;;;3.10;1.92;;;;;;;;;;1481636;40;20419;-82
2021/05/07 03:01:23;;;;;;;2.42;1.92;;;;;;;;;;1477881;40;20417;-81
2021/05/07 03:02:24;;;;;;;2.85;2.20;;;;;;;;;;1469556;40;20438;-81
2021/05/07 03:03:27;;;;;;;2.08;1.88;;;;;;;;;;1474362;40;20415;-81
2021/05/07 03:04:28;;;;;;;3.70;2.20;;;;;;;;;;1477840;40;20521;-82
2021/05/07 03:05:29;;;;;;;3.55;2.33;;;;;;;;;;1474148;40;20415;-80
2021/05/07 03:06:30;;;;;;;4.25;2.10;;;;;;;;;;1474390;40;20749;-80
2021/05/07 03:07:31;;;;;;;3.13;2.03;;;;;;;;;;1473885;40;20404;-81
2021/05/07 03:08:32;;;;;;;3.95;2.00;;;;;;;;;;1465525;40;20748;-81
2021/05/07 03:09:33;;;;;;;1.90;1.80;;;;;;;;;;1474135;40;20411;-82
2021/05/07 03:10:35;;;;;;;2.80;1.83;;;;;;;;;;1483617;40;20747;-80
2021/05/07 03:11:36;;;;;;;3.50;2.08;;;;;;;;;;1483812;40;20427;-80
2021/05/07 03:12:37;;;;;;;2.83;2.08;;;;;;;;;;1485759;40;20425;-80
2021/05/07 03:13:38;;;;;;;3.25;2.10;;;;;;;;;;1486704;40;20612;-81
2021/05/07 03:14:39;;;;;;;2.20;1.85;;;;;;;;;;1481779;40;20421;-79
2021/05/07 03:15:40;;;;;;;3.75;2.60;;;;;;;;;;1477384;40;20825;-80
2021/05/07 03:16:41;;;;;;;3.67;2.00;;;;;;;;;;1477932;40;20458;-80
2021/05/07 03:17:42;;;;;;;2.05;1.95;;;;;;;;;;1474168;40;20423;-80
2021/05/07 03:18:44;;;;;;;3.95;2.25;;;;;;;;;;1469249;40;20413;-80
2021/05/07 03:19:45;;;;;;;2.85;2.47;;;;;;;;;;1479822;40;20426;-80
2021/05/07 03:20:46;;;;;;;3.10;2.80;;;;;;;;;;1482677;40;20422;-80
2021/05/07 03:21:48;;;;;;;3.38;2.30;;;;;;;;;;1479215;40;20416;-79
2021/05/07 03:22:49;;;;;;;3.60;2.50;;;;;;;;;;1480810;40;20470;-80
2021/05/07 03:23:50;;;;;;;4.25;2.60;;;;;;;;;;1482490;40;20418;-79
2021/05/07 03:24:51;;;;;;;2.75;2.50;;;;;;;;;;1480865;40;20400;-78
2021/05/07 03:25:52;;;;;;;3.63;3.33;;;;;;;;;;1479674;40;20406;-79
2021/05/07 03:26:56;;;;;;;3.55;2.50;;;;;;;;;;1483736;40;20406;-79
2021/05/07 03:27:57;;;;;;;3.90;3.07;;;;;;;;;;1485832;40;20405;-79
2021/05/07 03:28:58;;;;;;;2.63;2.42;;;;;;;;;;1483255;40;20802;-80
2021/05/07 03:29:59;;;;;;;4.03;2.80;;;;;;;;;;1479535;40;20415;-80
2021/05/07 03:31:00;;;;;;;3.80;2.37;;;;;;;;;;1475258;40;20408;-81
2021/05/07 03:32:02;;;;;;;3.40;2.80;;;;;;;;;;1475671;40;20403;-80
2021/05/07 03:33:04;;;;;;;3.63;2.78;;;;;;;;;;1479190;40;20677;-81
2021/05/07 03:34:06;;;;;;;2.80;2.55;;;;;;;;;;1483468;40;20412;-80
2021/05/07 03:35:07;;;;;;;3.13;2.83;;;;;;;;;;1482994;40;20404;-80
2021/05/07 03:36:08;;;;;;;3.80;2.55;;;;;;;;;;1484808;40;20395;-81
2021/05/07 03:37:09;;;;;;;3.38;2.80;;;;;;;;;;1486603;40;21066;-80
2021/05/07 03:38:10;;;;;;;3.20;2.80;;;;;;;;;;1482152;40;20419;-80
2021/05/07 03:39:11;;;;;;;3.20;2.85;;;;;;;;;;1474656;40;20399;-79
2021/05/07 03:40:13;;;;;;;2.45;2.25;;;;;;;;;;1480902;40;20432;-80
2021/05/07 03:41:14;;;;;;;4.88;2.70;;;;;;;;;;1478691;40;20417;-81
2021/05/07 03:42:15;;;;;;;5.43;3.58;;;;;;;;;;1481054;40;20796;-81
2021/05/07 03:43:17;;;;;;;3.17;2.78;;;;;;;;;;1483015;40;20665;-82
2021/05/07 03:44:18;;;;;;;3.70;2.72;;;;;;;;;;1478499;40;20945;-81
2021/05/07 03:45:19;;;;;;;3.38;2.83;;;;;;;;;;1478759;40;20419;-82
2021/05/07 03:46:20;;;;;;;3.58;3.22;;;;;;;;;;1481495;40;20483;-83
2021/05/07 03:47:22;;;;;;;3.67;2.90;;;;;;;;;;1476130;40;20669;-80
2021/05/07 03:48:23;;;;;;;3.17;2.90;;;;;;;;;;1478265;40;20398;-80
2021/05/07 03:49:26;;;;;;;4.57;3.20;;;;;;;;;;1483269;40;20475;-80
2021/05/07 03:50:27;;;;;;;5.95;3.58;;;;;;;;;;1478220;40;20406;-80
2021/05/07 03:51:28;;;;;;;4.45;3.25;;;;;;;;;;1470753;40;20636;-80
2021/05/07 03:52:29;;;;;;;5.30;2.80;;;;;;;;;;1474268;40;20434;-79
2021/05/07 03:53:31;;;;;;;3.65;3.35;;;;;;;;;;1478454;40;20810;-79
2021/05/07 03:54:32;;;;;;;3.72;3.13;;;;;;;;;;1478726;40;20387;-80
2021/05/07 03:55:34;;;;;;;6.43;3.58;;;;;;;;;;1478564;40;20799;-80
2021/05/07 03:56:35;;;;;;;3.95;3.60;;;;;;;;;;1470713;40;21073;-80
2021/05/07 03:57:36;;;;;;;4.10;3.80;;;;;;;;;;1474455;40;20427;-82
2021/05/07 03:58:37;;;;;;;4.07;3.78;;;;;;;;;;1479801;40;20441;-80
2021/05/07 03:59:38;;;;;;;7.25;4.43;;;;;;;;;;1478722;40;20468;-80
2021/05/07 04:00:39;;;;;;;4.75;4.35;;;;;;;;;;1482003;40;20417;-79
2021/05/07 04:01:40;;;;;;;4.40;4.00;;;;;;;;;;1474321;40;20431;-80
2021/05/07 04:02:44;;;;;;;5.40;4.22;;;;;;;;;;1475048;40;20440;-79
2021/05/07 04:03:46;;;;;;;5.00;4.20;;;;;;;;;;1479103;40;20493;-80
2021/05/07 04:04:47;;;;;;;5.20;4.70;;;;;;;;;;1478860;40;20399;-79
2021/05/07 04:05:51;;;;;;;4.80;3.97;;;;;;;;;;1478709;40;20398;-79
2021/05/07 04:06:52;;;;;;;4.88;4.35;;;;;;;;;;1476387;40;20787;-80
2021/05/07 04:08:17;;;;;;;5.22;4.07;;;;;;;;;;1478277;40;20418;-79
2021/05/07 04:09:21;;;;;;;4.97;4.20;;;;;;;;;;1479996;40;20408;-82
2021/05/07 04:10:22;;;;;;;4.85;4.32;;;;;;;;;;1477955;40;20391;-80
2021/05/07 04:11:38;;;;;;;4.68;3.80;;;;;;;;;;1474448;40;20848;-82
2021/05/07 04:13:49;;;;;;;4.45;4.05;;;;;;;;;;1482146;40;20785;-80
2021/05/07 04:14:50;;;;;;;5.82;4.43;;;;;;;;;;1477981;40;20406;-80
2021/05/07 04:15:51;;;;;;;6.15;4.68;;;;;;;;;;1479862;40;20913;-80
2021/05/07 04:16:52;;;;;;;4.80;4.40;;;;;;;;;;1482862;40;20400;-80
2021/05/07 04:17:53;;;;;;;5.15;4.70;;;;;;;;;;1483183;40;20396;-80
2021/05/07 04:18:55;;;;;;;5.45;4.90;;;;;;;;;;1481837;40;20535;-80
2021/05/07 04:19:56;;;;;;;5.28;4.70;;;;;;;;;;1482595;40;20453;-80
2021/05/07 04:20:58;;;;;;;6.78;5.15;;;;;;;;;;1482575;40;20444;-80
2021/05/07 04:21:59;;;;;;;6.15;5.55;;;;;;;;;;1476760;40;20402;-80
2021/05/07 04:23:00;;;;;;;6.00;5.13;;;;;;;;;;1478347;40;20402;-79
2021/05/07 04:24:01;;;;;;;6.00;5.32;;;;;;;;;;1485105;40;20430;-79
2021/05/07 04:25:02;;;;;;;5.72;5.03;;;;;;;;;;1478480;40;20394;-80
2021/05/07 04:26:03;;;;;;;5.45;4.45;;;;;;;;;;1482888;40;20431;-80
2021/05/07 04:27:04;;;;;;;7.25;4.70;;;;;;;;;;1479708;40;20395;-80
2021/05/07 04:28:05;;;;;;;5.10;4.60;;;;;;;;;;1474110;40;20828;-80
2021/05/07 04:29:07;;;;;;;6.82;5.05;;;;;;;;;;1478476;40;20475;-80
2021/05/07 04:30:08;;;;;;;6.80;5.28;;;;;;;;;;1478420;40;20454;-80
2021/05/07 04:31:09;;;;;;;5.60;4.85;;;;;;;;;;1474546;40;20407;-81
2021/05/07 04:32:10;;;;;;;5.07;4.60;;;;;;;;;;1476400;40;20398;-80
2021/05/07 04:33:13;;;;;;;4.38;3.97;;;;;;;;;;1478125;40;20437;-80
2021/05/07 04:34:14;;;;;;;5.05;4.20;;;;;;;;;;1478644;40;20413;-80
2021/05/07 04:35:15;;;;;;;4.28;3.88;;;;;;;;;;1482672;40;20542;-81
2021/05/07 04:36:16;;;;;;;4.72;3.92;;;;;;;;;;1480663;40;20396;-82
2021/05/07 04:37:17;;;;;;;4.43;4.03;;;;;;;;;;1474748;40;20428;-82
2021/05/07 04:38:18;;;;;;;4.70;4.30;;;;;;;;;;1482251;40;20523;-81
2021/05/07 04:39:20;;;;;;;5.70;4.30;;;;;;;;;;1482555;40;20510;-82
2021/05/07 04:40:21;;;;;;;4.97;4.28;;;;;;;;;;1476420;40;20992;-80
2021/05/07 04:41:23;;;;;;;5.93;5.18;;;;;;;;;;1477848;40;20449;-80
2021/05/07 04:42:23;;;;;;;5.60;5.05;;;;;;;;;;1479178;40;20474;-80
2021/05/07 04:43:25;;;;;;;6.88;4.95;;;;;;;;;;1482440;40;20698;-81
2021/05/07 04:44:28;;;;;;;5.60;5.10;;;;;;;;;;1482283;40;20829;-81
2021/05/07 04:45:29;;;;;;;5.78;5.10;;;;;;;;;;1478601;40;20775;-80
2021/05/07 04:46:30;;;;;;;5.15;4.65;;;;;;;;;;1481858;40;20411;-80
2021/05/07 04:47:31;;;;;;;9.35;5.35;;;;;;;;;;1482367;40;20419;-80
2021/05/07 04:48:32;;;;;;;6.75;5.57;;;;;;;;;;1473592;40;20861;-80
2021/05/07 04:49:33;;;;;;;5.70;5.10;;;;;;;;;;1473480;40;20419;-80
2021/05/07 04:50:34;;;;;;;7.20;5.67;;;;;;;;;;1478273;40;20600;-80
2021/05/07 04:51:35;;;;;;;8.32;5.93;;;;;;;;;;1479004;40;20450;-81
2021/05/07 04:52:36;;;;;;;7.25;5.47;;;;;;;;;;1481837;40;20788;-79
2021/05/07 04:53:37;;;;;;;6.47;5.68;;;;;;;;;;1478714;40;20417;-80
2021/05/07 04:54:38;;;;;;;8.27;6.53;;;;;;;;;;1475264;40;20950;-80
2021/05/07 04:55:39;;;;;;;7.40;5.55;;;;;;;;;;1478325;40;20461;-79
2021/05/07 04:56:44;;;;;;;6.28;5.68;;;;;;;;;;1476903;40;20442;-79
2021/05/07 04:57:45;;;;;;;6.40;5.75;;;;;;;;;;1475019;40;20408;-80
2021/05/07 04:58:46;;;;;;;6.60;5.82;;;;;;;;;;1477258;40;20394;-81
2021/05/07 04:59:47;;;;;;;6.38;5.65;;;;;;;;;;1478597;40;20791;-80
2021/05/07 05:00:48;;;;;;;6.82;6.13;;;;;;;;;;1475266;40;21256;-80
2021/05/07 05:01:51;;;;;;;5.80;5.30;;;;;;;;;;1483236;40;20433;-81
2021/05/07 05:02:53;;;;;;;6.82;5.40;;;;;;;;;;1482749;40;20423;-80
2021/05/07 05:03:54;;;;;;;5.97;5.18;;;;;;;;;;1479188;40;20406;-80
2021/05/07 05:04:57;;;;;;;5.93;5.10;;;;;;;;;;1478962;40;20480;-80
2021/05/07 05:05:58;;;;;;;5.20;4.75;;;;;;;;;;1482676;40;20424;-81
2021/05/07 05:06:59;;;;;;;5.93;5.32;;;;;;;;;;1476783;40;20448;-80
2021/05/07 05:08:00;;;;;;;6.22;5.32;;;;;;;;;;1474191;40;20404;-80
2021/05/07 05:09:01;;;;;;;6.38;5.45;;;;;;;;;;1474440;40;20404;-80
2021/05/07 05:10:04;;;;;;;8.43;5.43;;;;;;;;;;1478665;40;20432;-80
2021/05/07 05:11:06;;;;;;;5.90;5.40;;;;;;;;;;1478806;40;20393;-81
2021/05/07 05:12:07;;;;;;;8.18;6.13;;;;;;;;;;1473840;40;20443;-80
2021/05/07 05:13:08;;;;;;;7.70;6.07;;;;;;;;;;1479532;40;20397;-80
2021/05/07 05:14:09;;;;;;;5.95;5.05;;;;;;;;;;1478551;40;20402;-80
2021/05/07 05:15:10;;;;;;;6.50;5.65;;;;;;;;;;1477338;40;20503;-80
2021/05/07 05:16:11;;;;;;;7.45;5.53;;;;;;;;;;1482458;40;20404;-81
2021/05/07 05:17:12;;;;;;;6.82;5.85;;;;;;;;;;1482794;40;20420;-80
2021/05/07 05:18:23;;;;;;;7.93;5.90;;;;;;;;;;1482331;40;20737;-80
2021/05/07 05:19:26;;;;;;;6.20;5.60;;;;;;;;;;1478999;40;20436;-80
2021/05/07 05:20:27;;;;;;;6.57;5.97;;;;;;;;;;1478119;40;20695;-81
2021/05/07 05:21:29;;;;;;;6.38;5.70;;;;;;;;;;1478325;40;20413;-80
2021/05/07 05:22:30;;;;;;;8.95;6.07;;;;;;;;;;1478438;40;20406;-80
2021/05/07 05:23:31;;;;;;;7.15;6.40;;;;;;;;;;1478200;40;20413;-80
2021/05/07 05:24:32;;;;;;;7.95;6.40;;;;;;;;;;1473300;40;20423;-80
2021/05/07 05:25:33;;;;;;;7.38;6.38;;;;;;;;;;1473832;40;20860;-81
2021/05/07 05:26:34;;;;;;;7.43;6.60;;;;;;;;;;1481712;40;20388;-81
2021/05/07 05:27:36;;;;;;;9.48;6.88;;;;;;;;;;1477566;40;20418;-81
2021/05/07 05:28:37;;;;;;;7.22;6.63;;;;;;;;;;1474736;40;20430;-80
2021/05/07 05:29:38;;;;;;;7.63;6.93;;;;;;;;;;1478312;40;20426;-80
2021/05/07 05:30:39;;;;;;;7.35;6.60;;;;;;;;;;1483257;40;20421;-81
2021/05/07 05:31:40;;;;;;;7.75;6.80;;;;;;;;;;1482361;40;20547;-80
2021/05/07 05:32:41;;;;;;;7.45;6.75;;;;;;;;;;1477943;40;20422;-81
2021/05/07 05:33:44;;;;;;;8.05;7.00;;;;;;;;;;1474101;40;20442;-81
2021/05/07 05:34:45;;;;;;;7.32;6.63;;;;;;;;;;1474378;40;20449;-80
2021/05/07 05:35:46;;;;;;;8.23;7.43;;;;;;;;;;1482242;40;20436;-80
2021/05/07 05:36:47;;;;;;;7.13;6.40;;;;;;;;;;1486386;40;20417;-80
2021/05/07 05:37:48;;;;;;;7.65;6.90;;;;;;;;;;1482189;40;20404;-80
2021/05/07 05:38:49;;;;;;;7.88;6.97;;;;;;;;;;1473873;40;20396;-80
2021/05/07 05:39:50;;;;;;;7.43;6.50;;;;;;;;;;1468643;40;20784;-80
2021/05/07 05:41:02;;;;;;;6.55;5.93;;;;;;;;;;1475243;40;20855;-81
2021/05/07 05:42:03;;;;;;;8.43;6.35;;;;;;;;;;1481081;40;20396;-81
2021/05/07 05:43:04;;;;;;;7.03;6.43;;;;;;;;;;1482222;40;20535;-80
2021/05/07 05:44:06;;;;;;;6.85;6.15;;;;;;;;;;1482305;40;20750;-80
2021/05/07 05:45:07;;;;;;;6.63;6.03;;;;;;;;;;1479740;40;20412;-81
2021/05/07 05:46:08;;;;;;;9.03;6.80;;;;;;;;;;1484100;40;20413;-81
2021/05/07 05:47:10;;;;;;;7.30;6.60;;;;;;;;;;1483290;40;20410;-81
2021/05/07 05:48:15;;;;;;;8.25;7.28;;;;;;;;;;1479833;40;20406;-80
2021/05/07 05:49:16;;;;;;;7.47;6.63;;;;;;;;;;1483844;40;20447;-80
2021/05/07 05:50:17;;;;;;;7.73;6.80;;;;;;;;;;1476485;40;20548;-81
2021/05/07 05:51:18;;;;;;;8.52;6.30;;;;;;;;;;1477383;40;20412;-82
2021/05/07 05:52:19;;;;;;;7.45;6.28;;;;;;;;;;1480187;40;20878;-82
2021/05/07 05:53:21;;;;;;;8.02;7.10;;;;;;;;;;1480496;40;20417;-81
2021/05/07 05:54:22;;;;;;;7.00;6.38;;;;;;;;;;1479271;40;20402;-80
2021/05/07 05:55:23;;;;;;;7.15;6.40;;;;;;;;;;1478733;40;20409;-81
2021/05/07 05:56:24;;;;;;;7.05;6.38;;;;;;;;;;1482937;40;20515;-82
2021/05/07 05:57:26;;;;;;;9.48;7.32;;;;;;;;;;1481431;40;20424;-80
2021/05/07 05:58:30;;;;;;;7.00;6.30;;;;;;;;;;1478388;40;20480;-81
2021/05/07 05:59:31;;;;;;;7.55;6.85;;;;;;;;;;1482852;40;20468;-81
2021/05/07 06:00:33;;;;;;;8.80;7.88;;;;;;;;;;1477579;40;20475;-80
2021/05/07 06:01:34;;;;;;;8.40;6.25;;;;;;;;;;1474180;40;20483;-80
2021/05/07 06:02:35;;;;;;;8.15;7.13;;;;;;;;;;1476066;40;20428;-80
2021/05/07 06:03:39;;;;;;;8.60;7.70;;;;;;;;;;1482212;40;20469;-81
2021/05/07 06:04:40;;;;;;;9.30;8.48;;;;;;;;;;1484535;40;20408;-81
2021/05/07 06:05:41;;;;;;;8.10;7.30;;;;;;;;;;1482808;40;20417;-80
2021/05/07 06:06:42;;;;;;;8.77;7.88;;;;;;;;;;1475304;40;21537;-81
2021/05/07 06:07:43;;;;;;;10.02;8.00;;;;;;;;;;1478274;40;20410;-81
2021/05/07 06:08:44;;;;;;;8.68;7.85;;;;;;;;;;1486192;40;20426;-81
2021/05/07 06:09:45;;;;;;;15.43;9.65;;;;;;;;;;1481520;40;21800;-81
2021/05/07 06:10:46;;;;;;;12.00;8.63;;;;;;;;;;1480815;40;20404;-81
2021/05/07 06:11:48;;;;;;;9.05;8.15;;;;;;;;;;1480349;40;20418;-80